LIRQLIMJ

Guest
Details From LIRQ - Firenze
To LIMJ - Genova Sestri
Flight Number -
Tags Routegen Generated
Created
Modified
Stats Distance 111 nm / 205 km
Max Altitude 300 ft / 91 m
Waypoints 8
Social Downloads 1
Likes 0
Share VATSIM

Download

Looking for another format? Having issues loading an existing format? Contact us
Advertisement - Login to hide

Notes

Departing runway 22 LIRQ. Arriving runway 10 LIMJ.

Route

LIRQ +43.76_+011.12 +43.74_+011.05 +43.73_+010.97 +43.75_+010.89 +44.01_+010.11 +44.39_+008.96 LIMJ

ID Type Via Altitude Latitude Longitude Leg Dist Tot Dist Heading (true) Name
O LIRQ APT - 0 ft / 0 m 43.80507˚ 11.19741˚ - 0 nm - -
+43.76_+011.12 LATLON - 300 ft / 91 m 43.75712˚ 11.12233˚ 4 nm 4 nm 229° / 228° -
+43.74_+011.05 LATLON - 300 ft / 91 m 43.73591˚ 11.04777˚ 3 nm 7 nm 249° / 248° -
+43.73_+010.97 LATLON - 300 ft / 91 m 43.73439˚ 10.96767˚ 3 nm 11 nm 269° / 268° -
+43.75_+010.89 LATLON - 300 ft / 91 m 43.75277˚ 10.89168˚ 3 nm 14 nm 289° / 288° -
+44.01_+010.11 LATLON - 300 ft / 91 m 44.01429˚ 10.10959˚ 37 nm 52 nm 295° / 295° -
+44.39_+008.96 LATLON - 300 ft / 91 m 44.38926˚ 8.95723˚ 54 nm 106 nm 295° / 294° -
O LIMJ APT - 0 ft / 0 m 44.40848˚ 8.85958˚ 4 nm 110 nm 285° / 285° -

Altitude Profile

Advertisement - Login to hide

LIRQ

Details ICAO LIRQ (FLR)
Name Firenze
Region Italy
Timezone Europe/Rome (UTC+1.0)
Stats Elevation 142 ft / 43 m (AMSL)
Location 43.809984° 11.205118°
Runways 1
Magnetic Variation 2.875° E

METAR

LIRQ 131450Z 22008KT 9999 SCT050 12/03 Q1017

Decode

TAF

TAF LIRQ 131100Z 1312/1412 24010KT 9999 SCT040

Decode

Departure Runways

ID Width Length Bearing (true) Bearing (mag) Surface Threshold Offset Overrun Length
05 98 ft / 30 m 5,420 ft / 1,652 m 48.52° 45.65° Asphalt 492 ft / 150 m 0 ft / 0 m
23 98 ft / 30 m 5,420 ft / 1,652 m 228.53° 225.66° Asphalt 2,287 ft / 697 m 0 ft / 0 m

LIMJ

Details ICAO LIMJ (GOA)
Name Genova Sestri
Region Italy
Timezone Unknown (UTC+0.0)
Stats Elevation 13 ft / 4 m (AMSL)
Location 44.411957° 8.841866°
Runways 1
Magnetic Variation 2.387° E

METAR

LIMJ 131450Z 17003KT 130V200 9999 FEW030 13/06 Q1015

Decode

TAF

TAF LIMJ 131100Z 1312/1412 16007KT 9999 SCT030

Decode

Destination Runways

ID Width Length Bearing (true) Bearing (mag) Surface Threshold Offset Overrun Length
10 148 ft / 45 m 9,574 ft / 2,918 m 105.39° 103.00° Asphalt 0 ft / 0 m 0 ft / 0 m
28 148 ft / 45 m 9,574 ft / 2,918 m 285.41° 283.02° Asphalt 538 ft / 164 m 0 ft / 0 m

Approach Navaids

Runway Type Ident Frequency Range Bearing (true) Bearing (mag) Slope Elevation
28 Localiser GSE 109.30 MHz 18 nm / 33 km 287.30° 284.91° - 9 ft / 3 m (AMSL)
28 Glidescope GSE 109.30 MHz 10 nm / 19 km 287.30° 284.91° 3.17° 26 ft / 8 m (AMSL)
28 DME GSE 109.30 MHz 18 nm / 33 km - - - 26 ft / 8 m (AMSL)

Popular Alternatives